createdAt,value
2023-04-25T00:00:08.013Z,8.60
2023-04-25T00:02:41.557Z,7.40
2023-04-25T00:05:09.387Z,6.00
2023-04-25T00:07:36.726Z,6.32
2023-04-25T00:10:04.550Z,8.07
2023-04-25T00:12:32.256Z,6.55
2023-04-25T00:15:01.065Z,8.77
2023-04-25T00:17:33.435Z,6.68
2023-04-25T00:20:01.072Z,9.15
2023-04-25T00:22:28.514Z,9.40
2023-04-25T00:24:58.250Z,8.43
2023-04-25T00:27:25.402Z,6.47
2023-04-25T00:29:52.756Z,8.82
2023-04-25T00:32:20.541Z,6.30
2023-04-25T00:34:47.933Z,6.15
2023-04-25T00:37:15.489Z,5.22
2023-04-25T00:39:44.775Z,4.43
2023-04-25T00:42:12.825Z,6.95
2023-04-25T00:44:41.176Z,5.03
2023-04-25T00:47:09.089Z,4.90
2023-04-25T00:49:36.631Z,5.43
2023-04-25T00:52:04.059Z,6.60
2023-04-25T00:54:31.804Z,4.22
2023-04-25T00:56:59.814Z,4.90
2023-04-25T00:59:28.282Z,4.43
2023-04-25T01:01:56.034Z,5.72
2023-04-25T01:04:23.660Z,5.40
2023-04-25T01:06:51.267Z,6.10
2023-04-25T01:09:20.601Z,8.48
2023-04-25T01:11:47.876Z,9.50
2023-04-25T01:14:15.024Z,6.82
2023-04-25T01:16:42.582Z,6.90
2023-04-25T01:19:14.647Z,7.80
2023-04-25T01:21:42.272Z,6.43
2023-04-25T01:24:09.589Z,6.30
2023-04-25T01:26:37.538Z,6.40
2023-04-25T01:29:06.015Z,7.28
2023-04-25T01:31:34.186Z,6.30
2023-04-25T01:34:01.476Z,8.10
2023-04-25T01:36:30.131Z,5.93
2023-04-25T01:38:57.983Z,6.53
2023-04-25T01:41:25.968Z,5.38
2023-04-25T01:43:53.587Z,7.38
2023-04-25T01:46:21.358Z,8.30
2023-04-25T01:48:48.784Z,10.23
2023-04-25T01:51:16.778Z,5.82
2023-04-25T01:53:44.581Z,5.60
2023-04-25T01:56:12.349Z,7.78
2023-04-25T01:58:40.372Z,6.20
2023-04-25T02:01:34.319Z,8.40
2023-04-25T02:04:15.630Z,7.47
2023-04-25T02:06:43.161Z,6.03
2023-04-25T02:09:10.757Z,10.05
2023-04-25T02:11:43.230Z,6.15
2023-04-25T02:14:26.260Z,7.07
2023-04-25T02:17:03.304Z,7.78
2023-04-25T02:19:32.186Z,7.65
2023-04-25T02:21:59.684Z,6.32
2023-04-25T02:24:29.001Z,8.38
2023-04-25T02:26:57.222Z,6.95
2023-04-25T02:29:24.557Z,8.30
2023-04-25T02:31:51.900Z,6.07
2023-04-25T02:34:19.313Z,6.50
2023-04-25T02:36:46.557Z,8.13
2023-04-25T02:39:13.776Z,5.47
2023-04-25T02:41:41.127Z,6.63
2023-04-25T02:44:08.516Z,11.90
2023-04-25T02:46:39.284Z,5.32
2023-04-25T02:49:07.462Z,5.18
2023-04-25T02:51:35.484Z,4.75
2023-04-25T02:54:03.099Z,5.70
2023-04-25T02:56:32.172Z,5.40
2023-04-25T02:58:59.431Z,6.57
2023-04-25T03:01:27.327Z,8.63
2023-04-25T03:03:55.110Z,10.13
2023-04-25T03:06:22.749Z,5.90
2023-04-25T03:08:49.945Z,7.18
2023-04-25T03:11:17.293Z,6.38
2023-04-25T03:13:44.581Z,6.80
2023-04-25T03:16:12.761Z,4.68
2023-04-25T03:18:39.884Z,4.75
2023-04-25T03:21:07.152Z,5.18
2023-04-25T03:23:35.055Z,6.40
2023-04-25T03:26:02.421Z,7.05
2023-04-25T03:28:29.753Z,5.95
2023-04-25T03:30:58.132Z,6.28
2023-04-25T03:33:25.511Z,8.40
2023-04-25T03:35:53.090Z,6.25
2023-04-25T03:38:20.873Z,4.32
2023-04-25T03:40:48.222Z,8.43
2023-04-25T03:43:21.967Z,6.65
2023-04-25T03:45:58.342Z,7.70
2023-04-25T03:48:27.971Z,6.68
2023-04-25T03:50:55.824Z,9.60
2023-04-25T03:53:23.435Z,6.38
2023-04-25T03:56:28.938Z,4.25
2023-04-25T03:59:03.169Z,5.47
2023-04-25T04:01:31.562Z,7.38
2023-04-25T04:03:59.009Z,5.88
2023-04-25T04:06:27.729Z,7.38
2023-04-25T04:09:04.247Z,7.93
2023-04-25T04:11:35.054Z,8.32
2023-04-25T04:14:02.322Z,5.63
2023-04-25T04:16:31.448Z,7.13
2023-04-25T04:19:00.968Z,9.65
2023-04-25T04:21:28.676Z,6.03
2023-04-25T04:23:56.022Z,4.13
2023-04-25T04:26:24.434Z,8.73
2023-04-25T04:29:06.280Z,3.65
2023-04-25T04:31:41.344Z,4.15
2023-04-25T04:34:08.702Z,7.68
2023-04-25T04:36:36.384Z,6.18
2023-04-25T04:39:04.733Z,8.25
2023-04-25T04:41:44.979Z,7.28
2023-04-25T04:44:16.325Z,9.20
2023-04-25T04:46:50.519Z,7.75
2023-04-25T04:49:47.614Z,10.00
2023-04-25T04:52:44.517Z,8.10
2023-04-25T04:55:31.139Z,9.98
2023-04-25T04:58:18.638Z,5.97
2023-04-25T05:00:56.405Z,7.07
2023-04-25T05:03:34.767Z,7.22
2023-04-25T05:06:22.668Z,4.80
2023-04-25T05:09:13.083Z,4.30
2023-04-25T05:12:02.373Z,5.40
2023-04-25T05:14:49.957Z,2.70
2023-04-25T05:23:26.037Z,5.05
2023-04-25T05:26:04.380Z,4.35
2023-04-25T05:28:58.599Z,2.83
2023-04-25T05:31:55.094Z,6.40
2023-04-25T05:34:22.319Z,6.82
2023-04-25T05:36:57.223Z,3.10
2023-04-25T05:39:25.630Z,3.67
2023-04-25T05:42:09.816Z,4.63
2023-04-25T05:45:01.759Z,4.65
2023-04-25T05:47:55.163Z,5.25
2023-04-25T05:50:39.518Z,6.03
2023-04-25T05:53:33.497Z,5.68
2023-04-25T05:56:02.877Z,5.30
2023-04-25T05:58:31.152Z,4.68
2023-04-25T06:01:00.656Z,4.25
2023-04-25T06:03:28.767Z,4.22
2023-04-25T06:05:58.546Z,7.03
2023-04-25T06:08:26.493Z,4.80
2023-04-25T06:10:53.878Z,4.80
2023-04-25T06:13:21.098Z,5.90
2023-04-25T06:15:48.820Z,3.55
2023-04-25T06:18:16.053Z,4.22
2023-04-25T06:20:43.432Z,5.15
2023-04-25T06:23:10.773Z,5.00
2023-04-25T06:26:03.196Z,4.63
2023-04-25T06:28:34.394Z,7.93
2023-04-25T06:31:02.302Z,3.70
2023-04-25T06:33:30.293Z,3.42
2023-04-25T06:35:58.293Z,5.82
2023-04-25T06:38:29.403Z,5.20
2023-04-25T06:40:58.584Z,6.10
2023-04-25T06:43:29.168Z,4.43
2023-04-25T06:46:17.896Z,4.55
2023-04-25T06:48:48.164Z,4.95
2023-04-25T06:51:16.123Z,4.22
2023-04-25T06:53:45.057Z,5.72
2023-04-25T06:56:22.462Z,4.20
2023-04-25T06:59:01.372Z,7.38
2023-04-25T07:01:31.860Z,6.85
2023-04-25T07:04:01.487Z,4.00
2023-04-25T07:06:32.194Z,3.15
2023-04-25T07:08:59.692Z,4.13
2023-04-25T07:11:27.044Z,4.65
2023-04-25T07:13:54.202Z,3.97
2023-04-25T07:16:21.852Z,2.95
2023-04-25T07:18:49.382Z,4.32
2023-04-25T07:21:16.795Z,3.72
2023-04-25T07:23:46.248Z,4.57
2023-04-25T07:26:18.297Z,5.25
2023-04-25T07:29:05.793Z,3.85
2023-04-25T07:31:33.003Z,4.28
2023-04-25T07:34:02.043Z,4.82
2023-04-25T07:36:29.780Z,6.60
2023-04-25T07:38:58.643Z,5.93
2023-04-25T07:41:27.131Z,4.53
2023-04-25T07:43:54.515Z,4.28
2023-04-25T07:46:22.360Z,4.82
2023-04-25T07:48:49.914Z,6.00
2023-04-25T07:51:17.397Z,6.15
2023-04-25T07:53:44.709Z,4.13
2023-04-25T07:56:15.446Z,4.30
2023-04-25T07:58:45.668Z,4.55
2023-04-25T08:01:15.801Z,3.30
2023-04-25T08:03:58.724Z,4.63
2023-04-25T08:06:45.159Z,3.25
2023-04-25T08:09:20.196Z,5.38
2023-04-25T08:11:50.514Z,3.60
2023-04-25T08:14:22.173Z,5.53
2023-04-25T08:16:50.120Z,5.90
2023-04-25T08:19:18.223Z,3.20
2023-04-25T08:21:47.117Z,4.47
2023-04-25T08:24:19.685Z,4.03
2023-04-25T08:26:46.913Z,4.65
2023-04-25T08:29:17.556Z,5.07
2023-04-25T08:31:45.588Z,5.68
2023-04-25T08:34:14.188Z,3.63
2023-04-25T08:36:48.419Z,5.22
2023-04-25T08:39:35.154Z,3.38
2023-04-25T08:42:22.812Z,5.18
2023-04-25T08:44:51.738Z,5.90
2023-04-25T08:47:23.367Z,3.95
2023-04-25T08:49:56.946Z,2.92
2023-04-25T08:52:26.471Z,4.68
2023-04-25T08:54:56.487Z,5.57
2023-04-25T08:57:24.421Z,3.65
2023-04-25T08:59:56.609Z,3.50
2023-04-25T09:02:26.331Z,4.28
2023-04-25T09:04:55.970Z,5.13
2023-04-25T09:07:23.818Z,4.72
2023-04-25T09:09:51.307Z,1.85
2023-04-25T09:12:35.672Z,3.17
2023-04-25T09:15:05.331Z,4.65
2023-04-25T09:17:58.749Z,1.95
2023-04-25T09:20:31.899Z,4.20
2023-04-25T09:23:04.929Z,2.80
2023-04-25T09:25:40.047Z,5.03
2023-04-25T09:28:09.504Z,5.57
2023-04-25T09:30:37.860Z,2.78
2023-04-25T09:33:12.947Z,2.88
2023-04-25T09:35:46.569Z,6.63
2023-04-25T09:38:25.326Z,6.50
2023-04-25T09:40:58.010Z,3.83
2023-04-25T09:43:46.097Z,4.88
2023-04-25T09:46:13.805Z,3.90
2023-04-25T09:48:52.338Z,4.15
2023-04-25T09:51:28.732Z,4.53
2023-04-25T09:53:58.024Z,4.32
2023-04-25T09:56:42.341Z,3.15
2023-04-25T09:59:12.557Z,3.35
2023-04-25T10:01:42.975Z,4.13
2023-04-25T10:04:23.981Z,2.45
2023-04-25T10:07:15.382Z,1.75
2023-04-25T10:09:48.365Z,5.03
2023-04-25T10:12:15.900Z,4.13
2023-04-25T10:14:43.816Z,2.08
2023-04-25T10:17:12.573Z,6.88
2023-04-25T10:19:40.836Z,2.38
2023-04-25T10:22:34.071Z,3.97
2023-04-25T10:25:05.072Z,6.40
2023-04-25T10:27:33.470Z,3.15
2023-04-25T10:30:05.575Z,2.50
2023-04-25T10:32:34.833Z,1.90
2023-04-25T10:35:28.794Z,2.10
2023-04-25T10:37:59.944Z,5.95
2023-04-25T10:40:28.180Z,2.35
2023-04-25T10:42:56.374Z,3.10
2023-04-25T10:45:23.992Z,3.63
2023-04-25T10:47:51.784Z,3.30
2023-04-25T10:50:19.910Z,6.05
2023-04-25T10:52:47.388Z,1.52
2023-04-25T10:55:17.052Z,4.25
2023-04-25T10:57:50.960Z,1.13
2023-04-25T11:00:20.887Z,1.13
2023-04-25T11:02:59.516Z,5.13
2023-04-25T11:08:45.059Z,3.15
2023-04-25T11:11:12.339Z,4.80
2023-04-25T11:13:39.506Z,3.13
2023-04-25T11:16:13.215Z,6.53
2023-04-25T11:18:45.296Z,3.08
2023-04-25T11:21:14.524Z,2.72
2023-04-25T11:23:41.768Z,6.85
2023-04-25T11:26:09.138Z,3.13
2023-04-25T11:28:36.674Z,1.80
2023-04-25T11:31:05.733Z,1.55
2023-04-25T11:33:33.196Z,3.13
2023-04-25T11:36:05.158Z,1.58
2023-04-25T11:38:35.268Z,3.10
2023-04-25T11:41:03.464Z,1.75
2023-04-25T11:43:30.978Z,1.60
2023-04-25T11:46:01.801Z,2.63
2023-04-25T11:48:37.503Z,3.05
2023-04-25T11:51:05.606Z,5.18
2023-04-25T11:53:33.190Z,4.53
2023-04-25T11:56:00.961Z,6.38
2023-04-25T11:58:29.098Z,2.42
2023-04-25T12:00:59.674Z,2.55
2023-04-25T12:03:32.407Z,1.65
2023-04-25T12:06:05.401Z,2.35
2023-04-25T12:08:36.836Z,2.65
2023-04-25T12:11:09.276Z,2.08
2023-04-25T12:13:54.375Z,4.05
2023-04-25T12:16:21.742Z,3.30
2023-04-25T12:18:49.337Z,2.35
2023-04-25T12:21:16.681Z,6.93
2023-04-25T12:23:43.996Z,3.55
2023-04-25T12:26:11.273Z,1.02
2023-04-25T12:28:38.469Z,3.50
2023-04-25T12:31:07.236Z,3.17
2023-04-25T12:33:38.938Z,1.48
2023-04-25T12:36:10.312Z,1.38
2023-04-25T12:38:43.190Z,2.25
2023-04-25T12:41:10.672Z,1.00
2023-04-25T12:43:37.909Z,2.58
2023-04-25T12:46:05.360Z,1.00
2023-04-25T12:48:32.639Z,3.25
2023-04-25T12:51:00.258Z,1.38
2023-04-25T12:53:27.437Z,1.95
2023-04-25T12:58:24.694Z,2.45
2023-04-25T13:00:51.927Z,1.65
2023-04-25T13:03:19.879Z,1.30
2023-04-25T13:05:47.383Z,1.65
2023-04-25T13:08:14.618Z,4.13
2023-04-25T13:10:42.089Z,2.45
2023-04-25T13:13:09.673Z,2.28
2023-04-25T13:15:37.644Z,2.28
2023-04-25T13:18:08.772Z,3.75
2023-04-25T13:20:36.188Z,1.98
2023-04-25T13:23:03.505Z,4.28
2023-04-25T13:25:31.014Z,3.20
2023-04-25T13:27:58.236Z,1.38
2023-04-25T13:30:25.534Z,2.65
2023-04-25T13:32:53.817Z,3.70
2023-04-25T13:35:21.088Z,2.22
2023-04-25T13:37:48.339Z,1.85
2023-04-25T13:40:15.608Z,1.80
2023-04-25T13:42:45.531Z,2.08
2023-04-25T13:45:13.045Z,1.75
2023-04-25T13:47:40.676Z,3.10
2023-04-25T13:50:19.492Z,1.85
2023-04-25T13:52:50.207Z,3.03
2023-04-25T13:55:25.283Z,1.83
2023-04-25T13:57:53.873Z,2.60
2023-04-25T14:00:22.460Z,1.95
2023-04-25T14:02:51.032Z,4.80
2023-04-25T14:05:18.640Z,1.00
2023-04-25T14:07:46.011Z,2.05
2023-04-25T14:10:13.493Z,2.05
2023-04-25T14:12:41.290Z,2.38
2023-04-25T14:15:08.804Z,1.40
2023-04-25T14:17:36.258Z,1.08
2023-04-25T14:20:06.649Z,1.98
2023-04-25T14:22:34.103Z,3.10
2023-04-25T14:25:01.447Z,1.95
2023-04-25T14:27:31.064Z,3.65
2023-04-25T14:29:58.308Z,5.43
2023-04-25T14:32:25.607Z,4.00
2023-04-25T14:34:52.992Z,2.03
2023-04-25T14:37:20.348Z,2.80
2023-04-25T14:39:47.529Z,0.70
2023-04-25T14:42:14.821Z,2.00
2023-04-25T14:44:42.067Z,2.50
2023-04-25T14:47:09.357Z,1.75
2023-04-25T14:49:36.568Z,1.23
2023-04-25T14:52:04.324Z,2.15
2023-04-25T14:54:31.548Z,1.08
2023-04-25T14:56:58.826Z,1.75
2023-04-25T14:59:26.618Z,4.50
2023-04-25T15:01:54.244Z,2.53
2023-04-25T15:04:24.380Z,1.30
2023-04-25T15:06:52.209Z,3.00
2023-04-25T15:09:20.474Z,5.03
2023-04-25T15:11:47.712Z,1.63
2023-04-25T15:14:15.211Z,2.08
2023-04-25T15:16:43.157Z,2.50
2023-04-25T15:19:10.448Z,2.00
2023-04-25T15:21:37.653Z,3.17
2023-04-25T15:24:05.119Z,2.35
2023-04-25T15:26:32.457Z,2.92
2023-04-25T15:28:59.651Z,2.20
2023-04-25T15:31:27.023Z,2.22
2023-04-25T15:33:54.394Z,2.00
2023-04-25T15:36:22.588Z,2.72
2023-04-25T15:38:49.762Z,2.28
2023-04-25T15:41:18.059Z,1.60
2023-04-25T15:43:47.654Z,2.33
2023-04-25T15:46:15.089Z,1.70
2023-04-25T15:48:42.547Z,1.90
2023-04-25T15:51:10.717Z,2.47
2023-04-25T15:53:38.061Z,3.00
2023-04-25T15:56:05.819Z,1.65
2023-04-25T15:58:33.217Z,1.80
2023-04-25T16:01:00.606Z,2.85
2023-04-25T16:03:28.416Z,1.58
2023-04-25T16:05:55.777Z,2.53
2023-04-25T16:08:25.014Z,1.50
2023-04-25T16:10:52.847Z,4.05
2023-04-25T16:13:20.064Z,1.48
2023-04-25T16:15:47.267Z,1.83
2023-04-25T16:18:14.714Z,0.63
2023-04-25T16:20:42.245Z,2.22
2023-04-25T16:23:09.647Z,2.75
2023-04-25T16:25:38.025Z,1.08
2023-04-25T16:28:05.585Z,3.67
2023-04-25T16:30:32.838Z,2.92
2023-04-25T16:33:00.135Z,1.65
2023-04-25T16:35:30.554Z,1.80
2023-04-25T16:37:58.334Z,1.75
2023-04-25T16:40:25.514Z,3.90
2023-04-25T16:42:52.775Z,3.78
2023-04-25T16:45:21.209Z,1.70
2023-04-25T16:47:50.998Z,6.43
2023-04-25T16:50:19.715Z,5.30
2023-04-25T16:52:46.945Z,3.80
2023-04-25T16:55:14.199Z,5.85
2023-04-25T16:57:41.675Z,2.30
2023-04-25T17:00:09.910Z,3.40
2023-04-25T17:02:38.069Z,4.50
2023-04-25T17:05:05.853Z,3.67
2023-04-25T17:07:33.177Z,2.63
2023-04-25T17:10:00.627Z,6.95
2023-04-25T17:12:28.001Z,3.67
2023-04-25T17:14:55.270Z,4.68
2023-04-25T17:17:22.518Z,3.05
2023-04-25T17:19:49.860Z,4.13
2023-04-25T17:22:17.219Z,5.03
2023-04-25T17:24:44.422Z,6.07
2023-04-25T17:27:12.303Z,5.05
2023-04-25T17:29:39.495Z,3.95
2023-04-25T17:32:06.748Z,6.40
2023-04-25T17:34:34.292Z,3.70
2023-04-25T17:37:01.437Z,3.00
2023-04-25T17:39:28.622Z,9.20
2023-04-25T17:41:55.741Z,7.85
2023-04-25T17:44:22.900Z,6.85
2023-04-25T17:46:51.299Z,3.30
2023-04-25T17:49:18.668Z,11.68
2023-04-25T17:51:46.172Z,6.03
2023-04-25T17:54:13.531Z,3.90
2023-04-25T17:56:40.683Z,4.97
2023-04-25T17:59:07.904Z,3.28
2023-04-25T18:01:36.044Z,5.45
2023-04-25T18:04:04.245Z,4.18
2023-04-25T18:06:35.122Z,6.80
2023-04-25T18:09:03.088Z,3.58
2023-04-25T18:11:30.906Z,4.00
2023-04-25T18:13:58.310Z,3.63
2023-04-25T18:16:29.572Z,5.95
2023-04-25T18:19:05.303Z,4.95
2023-04-25T18:21:33.065Z,4.28
2023-04-25T18:24:01.381Z,5.35
2023-04-25T18:26:30.812Z,7.60
2023-04-25T18:28:58.699Z,6.60
2023-04-25T18:31:26.634Z,12.65
2023-04-25T18:33:54.275Z,11.38
2023-04-25T18:36:24.460Z,13.43
2023-04-25T18:38:56.181Z,18.77
2023-04-25T18:43:56.236Z,17.60
2023-04-25T18:46:27.021Z,19.25
2023-04-25T18:48:55.084Z,21.75
2023-04-25T18:51:30.512Z,17.27
2023-04-25T18:53:59.811Z,17.63
2023-04-25T18:56:28.125Z,16.77
2023-04-25T18:58:56.174Z,16.27
2023-04-25T19:01:25.643Z,16.27
2023-04-25T19:03:56.964Z,16.23
2023-04-25T19:06:29.588Z,18.58
2023-04-25T19:08:57.723Z,13.48
2023-04-25T19:11:25.158Z,12.82
2023-04-25T19:13:53.023Z,8.95
2023-04-25T19:16:22.401Z,15.05
2023-04-25T19:18:52.405Z,11.27
2023-04-25T19:21:20.498Z,18.38
2023-04-25T19:23:47.800Z,14.18
2023-04-25T19:26:14.954Z,12.32
2023-04-25T19:28:44.889Z,13.10
2023-04-25T19:31:22.287Z,10.30
2023-04-25T19:33:49.774Z,11.80
2023-04-25T19:36:17.493Z,15.25
2023-04-25T19:38:45.963Z,11.07
2023-04-25T19:41:13.126Z,12.45
2023-04-25T19:43:40.496Z,12.05
2023-04-25T19:46:07.996Z,9.75
2023-04-25T19:48:35.267Z,8.80
2023-04-25T19:51:02.757Z,14.10
2023-04-25T19:53:30.009Z,21.45
2023-04-25T19:55:57.575Z,27.33
2023-04-25T19:58:24.884Z,30.67
2023-04-25T20:00:52.450Z,34.58
2023-04-25T20:03:19.681Z,37.97
2023-04-25T20:05:47.132Z,33.33
2023-04-25T20:08:14.359Z,30.80
2023-04-25T20:10:42.580Z,28.65
2023-04-25T20:13:10.689Z,26.45
2023-04-25T20:15:38.630Z,13.82
2023-04-25T20:18:05.858Z,26.90
2023-04-25T20:20:33.410Z,18.35
2023-04-25T20:23:00.930Z,19.38
2023-04-25T20:25:28.278Z,19.83
2023-04-25T20:27:56.533Z,16.13
2023-04-25T20:30:23.814Z,18.90
2023-04-25T20:32:51.185Z,22.95
2023-04-25T20:35:18.597Z,29.88
2023-04-25T20:37:46.594Z,30.60
2023-04-25T20:40:13.836Z,28.70
2023-04-25T20:42:41.048Z,30.75
2023-04-25T20:45:13.425Z,35.00
2023-04-25T20:47:41.570Z,28.23
2023-04-25T20:50:09.452Z,27.10
2023-04-25T20:52:38.682Z,25.23
2023-04-25T20:55:07.023Z,24.92
2023-04-25T20:57:34.314Z,27.00
2023-04-25T21:00:01.528Z,20.40
2023-04-25T21:02:32.481Z,19.63
2023-04-25T21:04:59.690Z,19.30
2023-04-25T21:07:27.018Z,22.67
2023-04-25T21:09:54.361Z,23.50
2023-04-25T21:12:21.659Z,22.85
2023-04-25T21:14:48.799Z,20.63
2023-04-25T21:17:16.107Z,12.98
2023-04-25T21:19:43.399Z,20.77
2023-04-25T21:22:10.683Z,19.55
2023-04-25T21:24:37.804Z,19.35
2023-04-25T21:27:05.097Z,18.52
2023-04-25T21:29:34.593Z,16.65
2023-04-25T21:32:04.429Z,17.35
2023-04-25T21:34:32.007Z,20.85
2023-04-25T21:36:59.221Z,18.48
2023-04-25T21:39:26.582Z,19.27
2023-04-25T21:41:53.818Z,25.42
2023-04-25T21:44:21.336Z,21.45
2023-04-25T21:46:48.959Z,22.70
2023-04-25T21:49:16.619Z,27.15
2023-04-25T21:51:44.510Z,23.15
2023-04-25T21:54:12.356Z,23.48
2023-04-25T21:56:39.609Z,21.75
2023-04-25T21:59:06.722Z,27.10
2023-04-25T22:01:34.374Z,24.02
2023-04-25T22:04:01.860Z,25.15
2023-04-25T22:06:29.480Z,27.10
2023-04-25T22:08:57.424Z,33.78
2023-04-25T22:11:24.599Z,25.73
2023-04-25T22:13:52.200Z,23.13
2023-04-25T22:16:19.644Z,29.85
2023-04-25T22:18:47.907Z,25.52
2023-04-25T22:21:15.327Z,18.92
2023-04-25T22:23:42.529Z,26.95
2023-04-25T22:26:10.017Z,23.42
2023-04-25T22:28:37.527Z,20.67
2023-04-25T22:31:04.912Z,18.17
2023-04-25T22:33:33.706Z,21.23
2023-04-25T22:36:02.234Z,20.52
2023-04-25T22:38:30.815Z,22.70
2023-04-25T22:40:58.042Z,24.90
2023-04-25T22:43:26.184Z,17.58
2023-04-25T22:45:53.529Z,18.65
2023-04-25T22:48:20.792Z,18.17
2023-04-25T22:50:47.893Z,20.63
2023-04-25T22:53:15.060Z,13.07
2023-04-25T22:55:44.416Z,15.43
2023-04-25T22:58:11.669Z,21.17
2023-04-25T23:00:39.004Z,18.55
2023-04-25T23:03:06.904Z,18.35
2023-04-25T23:05:34.393Z,14.35
2023-04-25T23:08:01.679Z,14.13
2023-04-25T23:10:28.974Z,17.65
2023-04-25T23:13:00.392Z,17.35
2023-04-25T23:15:31.059Z,19.60
2023-04-25T23:17:59.103Z,19.67
2023-04-25T23:20:26.766Z,20.55
2023-04-25T23:22:55.054Z,20.95
2023-04-25T23:25:22.436Z,22.58
2023-04-25T23:27:50.263Z,22.13
2023-04-25T23:30:17.874Z,18.10
2023-04-25T23:32:45.186Z,19.30
2023-04-25T23:35:12.404Z,22.13
2023-04-25T23:37:43.460Z,23.13
2023-04-25T23:40:12.447Z,19.58
2023-04-25T23:42:41.322Z,16.42
2023-04-25T23:45:09.412Z,17.05
2023-04-25T23:47:37.514Z,21.70
2023-04-25T23:50:06.082Z,18.83
2023-04-25T23:52:33.280Z,20.30
2023-04-25T23:55:00.443Z,15.80
2023-04-25T23:57:27.730Z,18.42
2023-04-25T23:59:54.924Z,16.77
